createdAt,value
2023-01-25T00:01:30.056Z,-0.10
2023-01-25T00:03:58.326Z,-0.10
2023-01-25T00:06:25.523Z,-0.10
2023-01-25T00:08:52.899Z,-0.10
2023-01-25T00:11:20.978Z,-0.10
2023-01-25T00:13:48.097Z,0.00
2023-01-25T00:16:15.204Z,0.00
2023-01-25T00:18:42.247Z,0.00
2023-01-25T00:21:13.374Z,0.00
2023-01-25T00:23:40.386Z,0.00
2023-01-25T00:26:07.485Z,0.00
2023-01-25T00:28:34.741Z,0.00
2023-01-25T00:31:05.747Z,0.00
2023-01-25T00:33:35.134Z,0.10
2023-01-25T00:36:02.146Z,0.00
2023-01-25T00:38:30.826Z,0.10
2023-01-25T00:40:59.043Z,0.10
2023-01-25T00:43:26.542Z,0.10
2023-01-25T00:46:00.213Z,0.10
2023-01-25T00:48:27.301Z,0.10
2023-01-25T00:50:54.266Z,0.10
2023-01-25T00:53:21.224Z,0.20
2023-01-25T00:55:54.285Z,0.20
2023-01-25T00:58:21.207Z,0.20
2023-01-25T01:03:16.470Z,0.20
2023-01-25T01:05:43.441Z,0.20
2023-01-25T01:08:10.653Z,0.20
2023-01-25T01:10:37.688Z,0.20
2023-01-25T01:13:04.888Z,0.20
2023-01-25T01:15:32.200Z,0.20
2023-01-25T01:17:59.284Z,0.20
2023-01-25T01:20:26.317Z,0.20
2023-01-25T01:22:55.493Z,0.30
2023-01-25T01:25:22.531Z,0.30
2023-01-25T01:27:49.619Z,0.30
2023-01-25T01:30:16.861Z,0.30
2023-01-25T01:32:43.908Z,0.30
2023-01-25T01:35:10.993Z,0.30
2023-01-25T01:37:38.033Z,0.30
2023-01-25T01:40:05.195Z,0.30
2023-01-25T01:42:32.234Z,0.30
2023-01-25T01:44:59.205Z,0.30
2023-01-25T01:47:29.245Z,0.30
2023-01-25T01:50:06.521Z,0.30
2023-01-25T01:52:36.133Z,0.40
2023-01-25T01:55:05.308Z,0.30
2023-01-25T01:57:41.906Z,0.40
2023-01-25T02:00:10.276Z,0.40
2023-01-25T02:02:37.455Z,0.40
2023-01-25T02:05:06.247Z,0.40
2023-01-25T02:07:35.373Z,0.40
2023-01-25T02:10:03.845Z,0.40
2023-01-25T02:12:31.534Z,0.40
2023-01-25T02:14:58.636Z,0.40
2023-01-25T02:17:34.066Z,0.40
2023-01-25T02:20:03.888Z,0.40
2023-01-25T02:22:36.899Z,0.50
2023-01-25T02:25:08.974Z,0.50
2023-01-25T02:27:38.852Z,0.50
2023-01-25T02:30:06.214Z,0.50
2023-01-25T02:32:33.839Z,0.50
2023-01-25T02:35:00.819Z,0.50
2023-01-25T02:37:27.940Z,0.50
2023-01-25T02:39:54.953Z,0.50
2023-01-25T02:42:21.988Z,0.50
2023-01-25T02:44:50.172Z,0.50
2023-01-25T02:47:17.152Z,0.50
2023-01-25T02:49:44.174Z,0.50
2023-01-25T02:52:11.192Z,0.60
2023-01-25T02:54:38.281Z,0.50
2023-01-25T02:57:05.383Z,0.60
2023-01-25T02:59:32.419Z,0.60
2023-01-25T03:01:59.524Z,0.60
2023-01-25T03:04:26.679Z,0.60
2023-01-25T03:06:53.777Z,0.60
2023-01-25T03:09:24.461Z,0.60
2023-01-25T03:11:51.601Z,0.60
2023-01-25T03:14:18.619Z,0.60
2023-01-25T03:16:45.580Z,0.60
2023-01-25T03:19:13.018Z,0.60
2023-01-25T03:21:40.876Z,0.60
2023-01-25T03:24:09.544Z,0.60
2023-01-25T03:26:56.691Z,0.70
2023-01-25T03:29:23.877Z,0.70
2023-01-25T03:31:51.567Z,0.70
2023-01-25T03:34:18.784Z,0.70
2023-01-25T03:36:45.797Z,0.70
2023-01-25T03:39:12.823Z,0.70
2023-01-25T03:41:39.940Z,0.70
2023-01-25T03:44:06.944Z,0.70
2023-01-25T03:46:33.910Z,0.70
2023-01-25T03:49:00.900Z,0.70
2023-01-25T03:51:27.934Z,0.70
2023-01-25T03:53:54.865Z,0.70
2023-01-25T03:56:21.891Z,0.70
2023-01-25T03:58:48.886Z,0.70
2023-01-25T04:01:15.996Z,0.70
2023-01-25T04:03:43.054Z,0.70
2023-01-25T04:06:10.163Z,0.70
2023-01-25T04:08:37.622Z,0.70
2023-01-25T04:11:05.824Z,0.70
2023-01-25T04:13:35.472Z,0.70
2023-01-25T04:16:06.405Z,0.70
2023-01-25T04:18:33.330Z,0.70
2023-01-25T04:21:00.410Z,0.70
2023-01-25T04:23:27.552Z,0.80
2023-01-25T04:25:54.962Z,0.80
2023-01-25T04:28:22.042Z,0.80
2023-01-25T04:30:49.020Z,0.80
2023-01-25T04:33:16.437Z,0.80
2023-01-25T04:35:43.797Z,0.80
2023-01-25T04:38:11.194Z,0.80
2023-01-25T04:40:38.298Z,0.80
2023-01-25T04:43:06.680Z,0.80
2023-01-25T04:45:34.084Z,0.80
2023-01-25T04:48:02.201Z,0.80
2023-01-25T04:50:29.159Z,0.80
2023-01-25T04:52:56.372Z,0.80
2023-01-25T04:55:23.635Z,0.80
2023-01-25T04:57:51.147Z,0.80
2023-01-25T05:00:18.901Z,0.80
2023-01-25T05:02:45.939Z,0.80
2023-01-25T05:05:13.507Z,0.80
2023-01-25T05:07:40.630Z,0.80
2023-01-25T05:10:08.722Z,0.80
2023-01-25T05:12:35.713Z,0.80
2023-01-25T05:15:02.750Z,0.80
2023-01-25T05:17:29.729Z,0.80
2023-01-25T05:19:56.679Z,0.80
2023-01-25T05:22:23.788Z,0.90
2023-01-25T05:24:50.788Z,0.90
2023-01-25T05:27:18.820Z,0.90
2023-01-25T05:29:46.582Z,0.90
2023-01-25T05:32:17.555Z,0.90
2023-01-25T05:34:44.951Z,0.80
2023-01-25T05:37:13.412Z,0.90
2023-01-25T05:39:40.338Z,0.90
2023-01-25T05:42:25.408Z,0.90
2023-01-25T05:44:52.439Z,0.90
2023-01-25T05:47:19.704Z,0.90
2023-01-25T05:49:46.721Z,0.90
2023-01-25T05:52:17.142Z,0.90
2023-01-25T05:54:44.132Z,0.90
2023-01-25T05:57:11.137Z,0.90
2023-01-25T05:59:38.039Z,0.90
2023-01-25T06:02:05.273Z,0.90
2023-01-25T06:04:32.288Z,0.90
2023-01-25T06:06:59.234Z,0.90
2023-01-25T06:09:27.255Z,0.90
2023-01-25T06:11:54.299Z,0.90
2023-01-25T06:14:21.335Z,0.90
2023-01-25T06:16:48.461Z,0.90
2023-01-25T06:19:15.691Z,0.90
2023-01-25T06:21:42.660Z,0.90
2023-01-25T06:24:09.681Z,0.90
2023-01-25T06:26:36.726Z,0.90
2023-01-25T06:29:07.092Z,0.90
2023-01-25T06:31:35.040Z,0.90
2023-01-25T06:34:04.676Z,0.90
2023-01-25T06:36:31.692Z,1.00
2023-01-25T06:38:58.704Z,1.00
2023-01-25T06:41:25.791Z,1.00
2023-01-25T06:43:53.038Z,1.00
2023-01-25T06:46:20.447Z,0.90
2023-01-25T06:48:47.939Z,0.90
2023-01-25T06:51:15.452Z,0.90
2023-01-25T06:53:43.684Z,1.00
2023-01-25T06:56:12.162Z,1.00
2023-01-25T06:58:39.521Z,0.90
2023-01-25T07:01:14.134Z,1.00
2023-01-25T07:03:41.312Z,1.00
2023-01-25T07:06:09.437Z,1.00
2023-01-25T07:08:36.886Z,1.00
2023-01-25T07:11:05.240Z,1.00
2023-01-25T07:13:33.247Z,1.00
2023-01-25T07:16:01.488Z,1.00
2023-01-25T07:18:30.242Z,1.00
2023-01-25T07:21:07.692Z,1.00
2023-01-25T07:23:34.838Z,1.00
2023-01-25T07:26:02.087Z,1.00
2023-01-25T07:28:29.345Z,1.00
2023-01-25T07:30:57.190Z,1.00
2023-01-25T07:33:24.226Z,1.00
2023-01-25T07:35:51.259Z,1.00
2023-01-25T07:38:18.180Z,1.10
2023-01-25T07:40:51.370Z,1.00
2023-01-25T07:43:18.283Z,1.10
2023-01-25T07:45:48.870Z,1.10
2023-01-25T07:48:16.477Z,1.10
2023-01-25T07:50:46.792Z,1.00
2023-01-25T07:53:14.060Z,1.00
2023-01-25T07:55:41.080Z,1.00
2023-01-25T07:58:09.470Z,1.10
2023-01-25T08:00:36.424Z,1.00
2023-01-25T08:03:03.511Z,1.10
2023-01-25T08:05:30.468Z,1.10
2023-01-25T08:07:57.403Z,1.10
2023-01-25T08:10:24.373Z,1.10
2023-01-25T08:12:51.398Z,1.10
2023-01-25T08:15:18.419Z,1.10
2023-01-25T08:17:45.482Z,1.10
2023-01-25T08:20:12.919Z,1.10
2023-01-25T08:22:39.918Z,1.10
2023-01-25T08:25:07.528Z,1.10
2023-01-25T08:27:34.655Z,1.10
2023-01-25T08:30:01.710Z,1.20
2023-01-25T08:32:28.726Z,1.20
2023-01-25T08:34:55.613Z,1.20
2023-01-25T08:37:22.624Z,1.20
2023-01-25T08:39:49.627Z,1.20
2023-01-25T08:42:16.598Z,1.20
2023-01-25T08:44:43.617Z,1.20
2023-01-25T08:47:10.602Z,1.20
2023-01-25T08:49:38.576Z,1.20
2023-01-25T08:52:05.724Z,1.30
2023-01-25T08:54:32.824Z,1.30
2023-01-25T08:57:01.102Z,1.30
2023-01-25T08:59:28.047Z,1.30
2023-01-25T09:01:55.116Z,1.30
2023-01-25T09:04:22.027Z,1.30
2023-01-25T09:06:49.075Z,1.30
2023-01-25T09:09:16.124Z,1.30
2023-01-25T09:11:43.119Z,1.30
2023-01-25T09:14:10.102Z,1.40
2023-01-25T09:16:37.204Z,1.40
2023-01-25T09:19:05.458Z,1.40
2023-01-25T09:21:32.793Z,1.40
2023-01-25T09:24:08.254Z,1.40
2023-01-25T09:26:36.918Z,1.40
2023-01-25T09:29:04.167Z,1.50
2023-01-25T09:31:31.357Z,1.50
2023-01-25T09:33:58.721Z,1.50
2023-01-25T09:36:25.995Z,1.50
2023-01-25T09:38:53.181Z,1.50
2023-01-25T09:41:20.063Z,1.50
2023-01-25T09:44:14.620Z,1.20
2023-01-25T09:46:50.417Z,1.50
2023-01-25T09:49:20.400Z,1.60
2023-01-25T09:52:06.003Z,1.60
2023-01-25T09:54:46.564Z,1.60
2023-01-25T09:57:19.716Z,1.60
2023-01-25T09:59:48.219Z,1.60
2023-01-25T10:02:34.709Z,1.60
2023-01-25T10:05:06.364Z,1.70
2023-01-25T10:07:33.407Z,1.70
2023-01-25T10:10:06.517Z,1.60
2023-01-25T10:12:36.511Z,1.60
2023-01-25T10:15:14.163Z,1.60
2023-01-25T10:17:42.913Z,1.60
2023-01-25T10:20:25.586Z,1.60
2023-01-25T10:23:06.832Z,1.60
2023-01-25T10:25:46.928Z,1.60
2023-01-25T10:28:20.691Z,1.60
2023-01-25T10:31:08.056Z,1.60
2023-01-25T10:33:39.316Z,1.60
2023-01-25T10:36:08.822Z,1.60
2023-01-25T10:38:43.407Z,1.60
2023-01-25T10:41:10.492Z,1.60
2023-01-25T10:43:38.717Z,1.60
2023-01-25T10:46:16.964Z,1.60
2023-01-25T10:48:43.893Z,1.60
2023-01-25T10:51:28.178Z,1.60
2023-01-25T10:53:59.409Z,1.70
2023-01-25T10:56:27.051Z,1.70
2023-01-25T10:59:06.309Z,1.70
2023-01-25T11:01:34.369Z,1.60
2023-01-25T11:04:01.946Z,1.60
2023-01-25T11:06:39.192Z,1.70
2023-01-25T11:09:28.771Z,1.60
2023-01-25T11:11:56.869Z,1.60
2023-01-25T11:14:26.662Z,1.70
2023-01-25T11:16:54.488Z,1.70
2023-01-25T11:19:26.412Z,1.70
2023-01-25T11:21:54.208Z,1.70
2023-01-25T11:24:21.428Z,1.70
2023-01-25T11:26:48.492Z,1.70
2023-01-25T11:29:24.308Z,1.70
2023-01-25T11:31:54.312Z,1.70
2023-01-25T11:34:22.686Z,1.70
2023-01-25T11:37:24.978Z,1.70
2023-01-25T11:39:51.959Z,1.70
2023-01-25T11:42:37.777Z,1.70
2023-01-25T11:45:13.896Z,1.70
2023-01-25T11:47:59.516Z,1.70
2023-01-25T11:50:29.399Z,1.70
2023-01-25T11:53:02.660Z,1.70
2023-01-25T11:55:34.615Z,1.70
2023-01-25T11:58:07.476Z,1.70
2023-01-25T12:00:53.652Z,1.70
2023-01-25T12:03:43.957Z,1.70
2023-01-25T12:06:28.108Z,1.80
2023-01-25T12:08:58.170Z,1.80
2023-01-25T12:11:28.141Z,1.80
2023-01-25T12:14:04.184Z,1.80
2023-01-25T12:17:03.592Z,1.80
2023-01-25T12:19:48.376Z,1.80
2023-01-25T12:22:18.081Z,1.80
2023-01-25T12:24:52.167Z,1.80
2023-01-25T12:27:22.194Z,1.80
2023-01-25T12:30:09.580Z,1.80
2023-01-25T12:32:50.262Z,1.80
2023-01-25T12:35:35.482Z,1.80
2023-01-25T12:38:05.010Z,1.80
2023-01-25T12:40:52.209Z,1.80
2023-01-25T12:43:21.956Z,1.80
2023-01-25T12:45:50.766Z,1.80
2023-01-25T12:48:38.516Z,1.80
2023-01-25T12:51:05.569Z,1.90
2023-01-25T12:53:49.483Z,1.80
2023-01-25T12:56:32.765Z,1.90
2023-01-25T12:59:03.284Z,1.90
2023-01-25T13:01:41.431Z,1.90
2023-01-25T13:04:26.134Z,1.90
2023-01-25T13:07:00.752Z,1.90
2023-01-25T13:09:33.942Z,2.00
2023-01-25T13:12:02.918Z,1.90
2023-01-25T13:14:31.015Z,1.90
2023-01-25T13:17:31.446Z,1.90
2023-01-25T13:19:58.885Z,1.90
2023-01-25T13:22:46.120Z,2.00
2023-01-25T13:25:22.971Z,2.00
2023-01-25T13:27:50.026Z,2.00
2023-01-25T13:30:17.044Z,2.00
2023-01-25T13:32:50.103Z,2.00
2023-01-25T13:35:32.537Z,2.00
2023-01-25T13:38:16.456Z,2.00
2023-01-25T13:40:43.663Z,2.00
2023-01-25T13:43:18.713Z,2.00
2023-01-25T13:45:46.963Z,2.00
2023-01-25T13:48:17.377Z,2.00
2023-01-25T13:50:49.161Z,2.10
2023-01-25T13:53:16.055Z,2.00
2023-01-25T13:55:44.135Z,2.10
2023-01-25T13:58:15.213Z,2.10
2023-01-25T14:01:08.699Z,2.00
2023-01-25T14:03:35.721Z,2.10
2023-01-25T14:06:04.346Z,2.10
2023-01-25T14:08:32.039Z,2.10
2023-01-25T14:10:59.180Z,2.10
2023-01-25T14:13:26.121Z,2.10
2023-01-25T14:15:57.338Z,2.10
2023-01-25T14:18:34.168Z,2.10
2023-01-25T14:21:12.343Z,2.10
2023-01-25T14:23:40.141Z,2.10
2023-01-25T14:26:17.311Z,2.10
2023-01-25T14:28:51.237Z,2.10
2023-01-25T14:31:28.824Z,2.10
2023-01-25T14:33:58.654Z,2.10
2023-01-25T14:36:29.627Z,2.10
2023-01-25T14:38:56.775Z,2.10
2023-01-25T14:41:26.583Z,2.10
2023-01-25T14:43:54.771Z,2.10
2023-01-25T14:46:23.084Z,2.10
2023-01-25T14:48:50.243Z,2.10
2023-01-25T14:51:30.360Z,2.10
2023-01-25T14:54:02.550Z,2.10
2023-01-25T14:56:40.649Z,2.10
2023-01-25T14:59:07.823Z,2.10
2023-01-25T15:01:41.239Z,2.10
2023-01-25T15:04:12.814Z,2.10
2023-01-25T15:06:53.008Z,2.10
2023-01-25T15:09:36.968Z,2.10
2023-01-25T15:12:27.229Z,2.20
2023-01-25T15:14:55.585Z,2.10
2023-01-25T15:17:43.338Z,2.10
2023-01-25T15:20:29.248Z,2.10
2023-01-25T15:22:56.922Z,2.10
2023-01-25T15:25:24.635Z,2.10
2023-01-25T15:27:51.955Z,2.10
2023-01-25T15:30:19.118Z,2.10
2023-01-25T15:32:46.938Z,2.10
2023-01-25T15:35:14.188Z,2.10
2023-01-25T15:37:41.252Z,2.10
2023-01-25T15:40:08.812Z,2.00
2023-01-25T15:42:36.040Z,2.10
2023-01-25T15:45:05.559Z,2.00
2023-01-25T15:47:33.777Z,2.10
2023-01-25T15:50:00.891Z,2.10
2023-01-25T15:52:27.896Z,2.00
2023-01-25T15:55:01.312Z,2.00
2023-01-25T15:57:34.855Z,2.10
2023-01-25T16:00:02.430Z,2.00
2023-01-25T16:02:29.544Z,2.00
2023-01-25T16:04:56.572Z,2.00
2023-01-25T16:07:26.026Z,2.00
2023-01-25T16:09:53.298Z,2.10
2023-01-25T16:12:22.440Z,2.00
2023-01-25T16:14:49.395Z,2.10
2023-01-25T16:17:20.216Z,2.10
2023-01-25T16:19:48.056Z,2.10
2023-01-25T16:22:15.772Z,2.00
2023-01-25T16:24:43.320Z,2.00
2023-01-25T16:27:14.892Z,2.10
2023-01-25T16:29:41.869Z,2.00
2023-01-25T16:32:08.906Z,2.10
2023-01-25T16:34:35.972Z,2.10
2023-01-25T16:37:03.331Z,2.00
2023-01-25T16:39:32.273Z,2.00
2023-01-25T16:41:59.363Z,2.00
2023-01-25T16:44:26.499Z,2.00
2023-01-25T16:46:53.601Z,2.00
2023-01-25T16:49:22.983Z,2.00
2023-01-25T16:51:50.789Z,2.00
2023-01-25T16:54:20.052Z,2.00
2023-01-25T16:56:47.872Z,2.00
2023-01-25T16:59:14.840Z,2.00
2023-01-25T17:01:42.079Z,2.00
2023-01-25T17:04:09.661Z,2.00
2023-01-25T17:06:38.048Z,2.00
2023-01-25T17:09:20.422Z,2.00
2023-01-25T17:11:49.335Z,2.00
2023-01-25T17:14:17.289Z,2.00
2023-01-25T17:16:45.240Z,2.00
2023-01-25T17:19:13.465Z,2.00
2023-01-25T17:21:40.828Z,2.00
2023-01-25T17:24:08.257Z,2.00
2023-01-25T17:26:35.577Z,2.00
2023-01-25T17:29:03.003Z,2.00
2023-01-25T17:31:34.173Z,2.00
2023-01-25T17:34:02.672Z,2.00
2023-01-25T17:36:29.843Z,2.00
2023-01-25T17:38:56.812Z,2.00
2023-01-25T17:41:23.782Z,2.00
2023-01-25T17:43:52.633Z,2.00
2023-01-25T17:46:25.822Z,2.20
2023-01-25T17:48:53.484Z,2.00
2023-01-25T17:51:22.826Z,2.00
2023-01-25T17:53:52.888Z,2.00
2023-01-25T17:56:20.337Z,2.00
2023-01-25T17:58:47.598Z,1.90
2023-01-25T18:01:16.237Z,1.90
2023-01-25T18:03:43.884Z,2.00
2023-01-25T18:06:11.815Z,2.00
2023-01-25T18:08:40.841Z,2.00
2023-01-25T18:11:09.164Z,2.00
2023-01-25T18:13:40.002Z,2.00
2023-01-25T18:16:07.659Z,2.00
2023-01-25T18:18:34.744Z,2.00
2023-01-25T18:21:24.433Z,2.00
2023-01-25T18:23:52.645Z,1.90
2023-01-25T18:26:21.133Z,1.90
2023-01-25T18:28:48.222Z,1.90
2023-01-25T18:31:18.206Z,2.00
2023-01-25T18:33:45.415Z,2.00
2023-01-25T18:36:16.049Z,1.90
2023-01-25T18:38:43.026Z,1.90
2023-01-25T18:41:10.031Z,2.00
2023-01-25T18:43:39.662Z,2.00
2023-01-25T18:46:06.935Z,2.00
2023-01-25T18:48:34.097Z,1.90
2023-01-25T18:51:05.365Z,2.00
2023-01-25T18:53:33.194Z,2.00
2023-01-25T18:56:01.276Z,1.90
2023-01-25T18:58:29.774Z,1.90
2023-01-25T19:01:06.145Z,2.00
2023-01-25T19:03:33.301Z,2.00
2023-01-25T19:06:00.546Z,1.90
2023-01-25T19:08:28.195Z,1.90
2023-01-25T19:10:59.068Z,2.00
2023-01-25T19:13:26.091Z,1.90
2023-01-25T19:16:00.111Z,1.90
2023-01-25T19:18:30.695Z,1.90
2023-01-25T19:20:57.626Z,2.00
2023-01-25T19:23:24.687Z,1.90
2023-01-25T19:25:55.189Z,2.00
2023-01-25T19:28:23.360Z,1.90
2023-01-25T19:30:50.418Z,2.00
2023-01-25T19:33:17.642Z,2.00
2023-01-25T19:35:44.592Z,2.00
2023-01-25T19:38:11.656Z,2.00
2023-01-25T19:40:38.642Z,2.00
2023-01-25T19:43:05.842Z,2.00
2023-01-25T19:45:32.841Z,2.00
2023-01-25T19:48:00.159Z,2.00
2023-01-25T19:50:27.882Z,2.00
2023-01-25T19:52:55.822Z,2.00
2023-01-25T19:55:22.758Z,2.00
2023-01-25T19:57:49.738Z,1.90
2023-01-25T20:00:16.828Z,2.00
2023-01-25T20:02:43.784Z,2.00
2023-01-25T20:05:10.969Z,1.90
2023-01-25T20:07:38.248Z,1.90
2023-01-25T20:10:05.419Z,2.00
2023-01-25T20:12:32.407Z,1.90
2023-01-25T20:14:59.456Z,1.90
2023-01-25T20:17:26.450Z,1.90
2023-01-25T20:19:53.372Z,1.90
2023-01-25T20:22:20.481Z,1.90
2023-01-25T20:24:47.445Z,1.90
2023-01-25T20:27:14.537Z,1.80
2023-01-25T20:29:41.605Z,1.80
2023-01-25T20:32:09.734Z,1.80
2023-01-25T20:34:38.264Z,1.70
2023-01-25T20:37:05.343Z,1.70
2023-01-25T20:39:32.247Z,1.70
2023-01-25T20:41:59.262Z,1.70
2023-01-25T20:44:26.885Z,1.70
2023-01-25T20:46:54.680Z,1.60
2023-01-25T20:49:21.712Z,1.60
2023-01-25T20:51:48.874Z,1.60
2023-01-25T20:54:16.971Z,1.60
2023-01-25T20:56:48.026Z,1.60
2023-01-25T20:59:16.701Z,1.60
2023-01-25T21:01:43.671Z,1.50
2023-01-25T21:04:11.758Z,1.50
2023-01-25T21:06:39.002Z,1.60
2023-01-25T21:09:06.044Z,1.50
2023-01-25T21:11:33.257Z,1.50
2023-01-25T21:14:00.290Z,1.50
2023-01-25T21:16:27.560Z,1.50
2023-01-25T21:18:55.778Z,1.50
2023-01-25T21:21:23.690Z,1.50
2023-01-25T21:23:51.214Z,1.40
2023-01-25T21:26:19.887Z,1.40
2023-01-25T21:28:47.267Z,1.40
2023-01-25T21:31:15.945Z,1.40
2023-01-25T21:33:43.435Z,1.40
2023-01-25T21:36:11.889Z,1.40
2023-01-25T21:38:39.972Z,1.40
2023-01-25T21:41:07.877Z,1.30
2023-01-25T21:43:54.779Z,1.40
2023-01-25T21:46:25.899Z,1.40
2023-01-25T21:49:15.481Z,1.40
2023-01-25T21:51:49.658Z,1.30
2023-01-25T21:54:17.472Z,1.30
2023-01-25T21:56:45.379Z,1.30
2023-01-25T21:59:12.264Z,1.30
2023-01-25T22:01:39.346Z,1.30
2023-01-25T22:04:06.392Z,1.30
2023-01-25T22:06:33.621Z,1.30
2023-01-25T22:09:00.849Z,1.30
2023-01-25T22:11:27.862Z,1.30
2023-01-25T22:13:55.020Z,1.30
2023-01-25T22:16:22.291Z,1.30
2023-01-25T22:18:49.841Z,1.30
2023-01-25T22:21:18.281Z,1.30
2023-01-25T22:23:45.743Z,1.20
2023-01-25T22:26:14.569Z,1.20
2023-01-25T22:28:48.811Z,1.20
2023-01-25T22:31:18.136Z,1.20
2023-01-25T22:33:45.213Z,1.30
2023-01-25T22:36:13.190Z,1.30
2023-01-25T22:38:40.494Z,1.30
2023-01-25T22:41:08.728Z,1.20
2023-01-25T22:43:37.808Z,1.20
2023-01-25T22:46:05.568Z,1.20
2023-01-25T22:48:33.373Z,1.20
2023-01-25T22:51:01.407Z,1.20
2023-01-25T22:53:28.568Z,1.20
2023-01-25T22:56:05.563Z,1.20
2023-01-25T22:58:34.215Z,1.20
2023-01-25T23:01:01.830Z,1.20
2023-01-25T23:03:29.049Z,1.20
2023-01-25T23:06:00.045Z,1.20
2023-01-25T23:08:28.691Z,1.20
2023-01-25T23:11:01.839Z,1.20
2023-01-25T23:13:29.291Z,1.20
2023-01-25T23:15:56.743Z,1.20
2023-01-25T23:18:42.145Z,1.20
2023-01-25T23:21:09.198Z,1.20
2023-01-25T23:23:36.235Z,1.20
2023-01-25T23:26:03.399Z,1.20
2023-01-25T23:28:31.051Z,1.20
2023-01-25T23:31:19.548Z,1.20
2023-01-25T23:33:47.724Z,1.20
2023-01-25T23:36:19.744Z,1.20
2023-01-25T23:38:47.334Z,1.20
2023-01-25T23:41:14.873Z,1.20
2023-01-25T23:43:42.131Z,1.10
2023-01-25T23:46:09.547Z,1.20
2023-01-25T23:48:36.876Z,1.10
2023-01-25T23:51:03.943Z,1.20
2023-01-25T23:53:31.777Z,1.10
2023-01-25T23:56:02.709Z,1.10
2023-01-25T23:58:30.361Z,1.10
